Time;durP1;ratioP1;P1;durP2;ratioP2;P2;SDS_P1;SDS_P2;PMS_P1;PMS_P2;Temp;Humidity;BMP_temperature;BMP_pressure;BME280_temperature;BME280_humidity;BME280_pressure;Samples;Min_cycle;Max_cycle;Signal;HPM_P1;HPM_P2
2024/01/03 00:01:27;;;;;;;8.90;2.07;;;11.70;99.90;;;;;;5009976;28;20200;-78
2024/01/03 00:03:55;;;;;;;9.90;2.27;;;11.70;99.90;;;;;;4977465;28;20203;-78
2024/01/03 00:06:23;;;;;;;8.43;2.20;;;11.60;99.90;;;;;;5009192;28;20212;-78
2024/01/03 00:08:50;;;;;;;9.30;2.23;;;11.60;99.90;;;;;;4977012;28;20320;-78
2024/01/03 00:11:20;;;;;;;3.80;1.43;;;11.60;99.90;;;;;;4994487;28;20201;-78
2024/01/03 00:14:05;;;;;;;8.13;1.73;;;11.50;99.90;;;;;;4997100;28;20211;-78
2024/01/03 00:16:38;;;;;;;9.13;2.33;;;11.60;99.90;;;;;;4997461;28;20196;-78
2024/01/03 00:19:08;;;;;;;10.50;2.27;;;11.50;99.90;;;;;;4996241;28;20230;-78
2024/01/03 00:21:54;;;;;;;9.00;2.23;;;11.50;99.90;;;;;;4997322;28;20211;-78
2024/01/03 00:24:22;;;;;;;11.77;2.53;;;11.30;99.90;;;;;;5014374;28;20192;-78
2024/01/03 00:26:49;;;;;;;7.80;2.03;;;11.30;99.90;;;;;;5015926;28;20558;-78
2024/01/03 00:29:50;;;;;;;8.17;2.33;;;11.30;99.90;;;;;;4977341;28;20692;-78
2024/01/03 00:32:20;;;;;;;4.13;1.90;;;11.20;99.90;;;;;;4977657;28;20574;-78
2024/01/03 00:34:47;;;;;;;9.63;1.47;;;11.20;99.90;;;;;;5009526;28;20204;-78
2024/01/03 00:37:30;;;;;;;5.90;1.43;;;11.10;99.90;;;;;;5011665;28;20207;-78
2024/01/03 00:39:58;;;;;;;5.37;1.53;;;11.10;99.90;;;;;;4996672;28;20245;-78
2024/01/03 00:42:26;;;;;;;11.80;2.87;;;10.90;99.90;;;;;;4983993;28;20195;-78
2024/01/03 00:44:53;;;;;;;6.30;2.13;;;10.80;99.90;;;;;;4996263;28;20200;-78
2024/01/03 00:47:23;;;;;;;4.67;1.90;;;10.80;99.90;;;;;;4996563;28;20569;-78
2024/01/03 00:49:51;;;;;;;7.53;2.13;;;10.90;99.90;;;;;;4989474;28;20224;-78
2024/01/03 00:52:20;;;;;;;15.40;2.30;;;10.80;99.90;;;;;;5029260;28;20200;-78
2024/01/03 00:54:47;;;;;;;8.70;2.47;;;10.70;99.90;;;;;;4996201;28;20225;-78
2024/01/03 00:57:16;;;;;;;11.07;2.30;;;10.60;99.90;;;;;;4996992;28;20207;-78
2024/01/03 00:59:45;;;;;;;9.70;2.60;;;10.60;99.90;;;;;;5014174;28;20224;-78
2024/01/03 01:02:13;;;;;;;11.53;2.33;;;10.50;99.90;;;;;;4989119;28;20249;-78
2024/01/03 01:04:42;;;;;;;12.97;1.90;;;10.50;99.90;;;;;;4975027;28;20201;-78
2024/01/03 01:10:57;;;;;;;7.37;2.27;;;10.60;99.90;;;;;;5014079;28;20202;-78
2024/01/03 01:13:24;;;;;;;7.73;2.37;;;10.60;99.90;;;;;;4995989;28;20204;-78
2024/01/03 01:15:52;;;;;;;7.63;2.23;;;10.60;99.90;;;;;;4994173;28;20206;-79
2024/01/03 01:18:19;;;;;;;7.90;2.70;;;10.80;99.90;;;;;;4979155;28;20227;-78
2024/01/03 01:20:48;;;;;;;10.03;2.53;;;10.80;99.90;;;;;;4995853;28;20231;-78
2024/01/03 01:23:15;;;;;;;8.13;2.27;;;10.80;99.90;;;;;;5014067;28;20529;-78
2024/01/03 01:25:43;;;;;;;9.83;2.40;;;10.80;99.90;;;;;;4996330;28;20196;-78
2024/01/03 01:28:10;;;;;;;10.97;2.53;;;10.80;99.90;;;;;;4996414;28;20685;-78
2024/01/03 01:30:37;;;;;;;11.30;2.80;;;10.80;99.90;;;;;;4991680;28;20221;-78
2024/01/03 01:33:05;;;;;;;8.30;2.33;;;10.90;99.90;;;;;;4976374;28;20200;-78
2024/01/03 01:35:33;;;;;;;9.23;1.87;;;10.80;99.90;;;;;;4976470;28;20665;-78
2024/01/03 01:38:03;;;;;;;10.30;1.93;;;10.80;99.90;;;;;;4989584;28;20677;-78
2024/01/03 01:40:30;;;;;;;9.33;1.97;;;10.80;99.90;;;;;;4980449;28;20243;-78
2024/01/03 01:42:57;;;;;;;8.47;2.80;;;10.80;99.90;;;;;;5003646;28;20199;-78
2024/01/03 01:45:25;;;;;;;8.00;2.43;;;10.70;99.90;;;;;;5003394;28;20227;-78
2024/01/03 01:47:53;;;;;;;8.70;2.43;;;10.70;99.90;;;;;;5000523;28;20218;-78
2024/01/03 01:50:21;;;;;;;12.87;2.73;;;10.70;99.90;;;;;;4996179;28;20693;-78
2024/01/03 01:52:49;;;;;;;9.73;2.00;;;10.70;99.90;;;;;;4995799;28;20226;-78
2024/01/03 01:55:18;;;;;;;9.67;2.63;;;10.60;99.90;;;;;;4995464;28;20215;-78
2024/01/03 01:57:46;;;;;;;9.27;2.03;;;10.50;99.90;;;;;;4995677;28;20215;-78
2024/01/03 02:00:14;;;;;;;6.27;2.20;;;10.50;99.90;;;;;;4995039;28;20215;-78
2024/01/03 02:02:43;;;;;;;11.77;2.93;;;10.50;99.90;;;;;;5016478;28;20203;-78
2024/01/03 02:05:12;;;;;;;9.80;2.07;;;10.60;99.90;;;;;;5023354;28;20199;-78
2024/01/03 02:07:39;;;;;;;7.70;2.00;;;10.50;99.90;;;;;;4986785;28;20564;-78
2024/01/03 02:10:08;;;;;;;6.93;1.80;;;10.60;99.90;;;;;;4975748;28;20216;-78
2024/01/03 02:12:37;;;;;;;8.83;2.10;;;10.50;99.90;;;;;;5019004;28;20223;-78
2024/01/03 02:15:06;;;;;;;6.93;2.27;;;10.40;99.90;;;;;;5014045;28;20215;-78
2024/01/03 02:17:35;;;;;;;11.87;2.57;;;10.40;99.90;;;;;;4999457;28;20199;-78
2024/01/03 02:20:02;;;;;;;7.70;1.63;;;10.40;99.90;;;;;;4999471;28;20231;-78
2024/01/03 02:22:31;;;;;;;9.10;2.07;;;10.40;99.90;;;;;;4999475;28;20200;-78
2024/01/03 02:24:59;;;;;;;11.47;2.37;;;10.50;99.90;;;;;;4999104;28;20684;-78
2024/01/03 02:27:27;;;;;;;8.00;2.40;;;10.50;99.90;;;;;;4999369;28;20199;-78
2024/01/03 02:29:54;;;;;;;5.47;2.20;;;10.50;99.90;;;;;;4987879;28;20682;-78
2024/01/03 02:32:22;;;;;;;10.37;2.03;;;10.60;99.90;;;;;;4979113;28;20201;-78
2024/01/03 02:34:49;;;;;;;11.50;2.37;;;10.60;99.90;;;;;;5013238;28;20196;-78
2024/01/03 02:37:22;;;;;;;6.73;1.70;;;10.60;99.90;;;;;;4999429;28;20200;-78
2024/01/03 02:39:50;;;;;;;7.93;1.73;;;10.70;99.90;;;;;;5016160;28;20227;-78
2024/01/03 02:42:18;;;;;;;6.87;1.77;;;10.70;99.90;;;;;;4998950;28;20203;-78
2024/01/03 02:44:45;;;;;;;6.63;1.90;;;10.70;99.90;;;;;;4982299;28;20205;-78
2024/01/03 02:47:12;;;;;;;7.73;2.03;;;10.70;99.90;;;;;;5024017;28;20196;-78
2024/01/03 02:49:40;;;;;;;6.33;1.80;;;10.70;99.90;;;;;;4996454;28;20219;-78
2024/01/03 02:52:07;;;;;;;7.20;1.50;;;10.60;99.90;;;;;;4996726;28;20188;-78
2024/01/03 02:54:35;;;;;;;2.77;1.17;;;10.50;99.90;;;;;;5011085;28;20196;-78
2024/01/03 02:57:04;;;;;;;6.57;1.43;;;10.50;99.90;;;;;;5012923;28;20204;-77
2024/01/03 02:59:31;;;;;;;4.33;1.60;;;10.50;99.90;;;;;;4998740;28;20223;-77
2024/01/03 03:01:58;;;;;;;4.63;1.40;;;10.50;99.90;;;;;;4998064;28;20199;-78
2024/01/03 03:04:26;;;;;;;6.60;1.97;;;10.40;99.90;;;;;;4998445;28;20262;-78
2024/01/03 03:06:53;;;;;;;9.43;2.07;;;10.40;99.90;;;;;;5030939;28;20227;-78
2024/01/03 03:09:25;;;;;;;6.90;1.70;;;10.30;99.90;;;;;;4983594;28;20218;-78
2024/01/03 03:11:52;;;;;;;6.93;1.43;;;10.30;99.90;;;;;;4998355;28;20218;-78
2024/01/03 03:14:22;;;;;;;5.93;2.20;;;10.40;99.90;;;;;;5015692;28;20188;-78
2024/01/03 03:16:49;;;;;;;7.83;2.00;;;10.40;99.90;;;;;;4990750;28;20200;-78
2024/01/03 03:19:17;;;;;;;7.87;1.87;;;10.40;99.90;;;;;;5024010;28;20220;-78
2024/01/03 03:21:44;;;;;;;7.80;1.77;;;10.40;99.90;;;;;;5010837;28;20196;-78
2024/01/03 03:24:12;;;;;;;6.60;1.50;;;10.40;99.90;;;;;;4984076;28;20211;-78
2024/01/03 03:26:39;;;;;;;6.73;1.30;;;10.50;99.90;;;;;;4996995;28;20585;-78
2024/01/03 03:29:06;;;;;;;5.47;1.40;;;10.60;99.90;;;;;;4997595;28;20211;-78
2024/01/03 03:31:35;;;;;;;6.83;2.40;;;10.60;99.90;;;;;;4985251;28;20200;-78
2024/01/03 03:34:02;;;;;;;4.33;1.40;;;10.60;99.90;;;;;;5010803;28;20196;-78
2024/01/03 03:36:30;;;;;;;3.87;1.33;;;10.60;99.90;;;;;;5010741;28;20207;-78
2024/01/03 03:38:57;;;;;;;6.00;1.47;;;10.70;99.90;;;;;;4974641;28;20228;-78
2024/01/03 03:41:25;;;;;;;5.90;1.50;;;10.60;99.90;;;;;;4988671;28;20203;-78
2024/01/03 03:43:52;;;;;;;7.87;1.50;;;10.70;99.90;;;;;;4978326;28;20573;-78
2024/01/03 03:46:20;;;;;;;7.40;1.73;;;10.60;99.90;;;;;;4982694;28;20211;-78
2024/01/03 03:48:48;;;;;;;9.57;1.50;;;10.50;99.90;;;;;;5022235;28;20520;-78
2024/01/03 03:51:16;;;;;;;7.23;1.57;;;10.50;99.90;;;;;;4994351;28;20200;-78
2024/01/03 03:53:43;;;;;;;4.50;1.20;;;10.40;99.90;;;;;;4997088;28;20203;-78
2024/01/03 03:56:11;;;;;;;6.03;1.60;;;10.30;99.90;;;;;;4992664;28;20199;-78
2024/01/03 03:58:38;;;;;;;7.33;1.50;;;10.30;99.90;;;;;;4997329;28;20693;-78
2024/01/03 04:01:08;;;;;;;6.03;1.87;;;10.30;99.90;;;;;;5030068;28;20226;-77
2024/01/03 04:03:37;;;;;;;4.73;1.30;;;10.30;99.90;;;;;;4989952;28;20191;-77
2024/01/03 04:06:06;;;;;;;4.83;1.53;;;10.40;99.90;;;;;;5015408;28;20223;-77
2024/01/03 04:08:34;;;;;;;7.30;1.67;;;10.40;99.90;;;;;;4997348;28;20200;-77
2024/01/03 04:11:03;;;;;;;7.77;1.40;;;10.40;99.90;;;;;;5014776;28;20695;-77
2024/01/03 04:13:31;;;;;;;6.20;1.67;;;10.50;99.90;;;;;;5011919;28;20192;-77
2024/01/03 04:16:02;;;;;;;5.73;2.00;;;10.50;99.90;;;;;;4977457;28;20200;-77
2024/01/03 04:18:30;;;;;;;8.80;2.40;;;10.60;99.90;;;;;;4992467;28;20663;-77
2024/01/03 04:20:57;;;;;;;10.00;1.70;;;10.50;99.90;;;;;;5017040;28;20227;-77
2024/01/03 04:23:26;;;;;;;6.43;1.87;;;10.50;99.90;;;;;;4996789;28;20199;-77
2024/01/03 04:25:54;;;;;;;7.13;2.20;;;10.50;99.90;;;;;;4996956;28;20211;-77
2024/01/03 04:28:21;;;;;;;5.97;1.43;;;10.60;99.90;;;;;;4997431;28;20203;-77
2024/01/03 04:30:48;;;;;;;4.80;1.63;;;10.60;99.90;;;;;;4996403;28;20223;-77
2024/01/03 04:33:16;;;;;;;5.33;1.50;;;10.60;99.90;;;;;;4996382;28;20561;-77
2024/01/03 04:35:45;;;;;;;6.37;1.70;;;10.60;99.90;;;;;;4995355;28;20199;-77
2024/01/03 04:38:12;;;;;;;4.93;1.50;;;10.50;99.90;;;;;;4997052;28;20214;-77
2024/01/03 04:40:41;;;;;;;3.90;1.47;;;10.50;99.90;;;;;;4996530;28;20238;-77
2024/01/03 04:43:09;;;;;;;7.00;1.53;;;10.50;99.90;;;;;;4996754;28;20210;-77
2024/01/03 04:45:36;;;;;;;6.93;1.67;;;10.40;99.90;;;;;;4996213;28;20208;-77
2024/01/03 04:48:04;;;;;;;5.20;1.23;;;10.50;99.90;;;;;;4996519;28;20196;-77
2024/01/03 04:50:32;;;;;;;6.50;1.47;;;10.40;99.90;;;;;;4976595;28;20219;-77
2024/01/03 04:52:59;;;;;;;4.17;1.07;;;10.50;99.90;;;;;;4994622;28;20210;-77
2024/01/03 04:55:27;;;;;;;6.17;2.00;;;10.40;99.90;;;;;;4995992;28;20199;-77
2024/01/03 04:57:55;;;;;;;3.43;1.57;;;10.40;99.90;;;;;;4996510;28;20203;-77
2024/01/03 05:00:23;;;;;;;6.87;1.80;;;10.50;99.90;;;;;;4995874;28;20713;-77
2024/01/03 05:02:51;;;;;;;9.10;1.40;;;10.40;99.90;;;;;;5013889;28;20642;-77
2024/01/03 05:05:19;;;;;;;5.67;1.60;;;10.40;99.90;;;;;;5013790;28;20646;-77
2024/01/03 05:07:46;;;;;;;5.80;1.63;;;10.50;99.90;;;;;;4996018;28;20207;-77
2024/01/03 05:10:13;;;;;;;5.70;1.33;;;10.50;99.90;;;;;;4996498;28;20219;-77
2024/01/03 05:12:41;;;;;;;6.73;1.53;;;10.50;99.90;;;;;;5003678;28;20203;-77
2024/01/03 05:15:10;;;;;;;4.00;1.10;;;10.50;99.90;;;;;;4977262;28;20211;-77
2024/01/03 05:17:38;;;;;;;5.63;1.27;;;10.50;99.90;;;;;;4996087;28;20560;-77
2024/01/03 05:20:07;;;;;;;3.97;1.33;;;10.50;99.90;;;;;;5011775;28;20222;-77
2024/01/03 05:22:34;;;;;;;5.60;1.50;;;10.50;99.90;;;;;;4991771;28;20213;-77
2024/01/03 05:25:02;;;;;;;6.47;1.60;;;10.50;99.90;;;;;;4977933;28;20558;-77
2024/01/03 05:27:29;;;;;;;6.67;2.10;;;10.60;99.90;;;;;;5016935;28;20716;-77
2024/01/03 05:29:57;;;;;;;3.97;1.47;;;10.70;99.90;;;;;;4999863;28;20219;-77
2024/01/03 05:32:25;;;;;;;6.67;1.50;;;10.60;99.90;;;;;;4999829;28;20188;-77
2024/01/03 05:34:53;;;;;;;4.97;1.50;;;10.60;99.90;;;;;;4995143;28;20195;-77
2024/01/03 05:37:20;;;;;;;5.33;1.37;;;10.70;99.90;;;;;;4995829;28;20199;-78
2024/01/03 05:39:47;;;;;;;5.50;1.30;;;10.70;99.90;;;;;;4995109;28;20709;-78
2024/01/03 05:42:15;;;;;;;5.33;1.53;;;10.70;99.90;;;;;;4995903;28;20203;-78
2024/01/03 05:44:42;;;;;;;3.23;1.20;;;10.70;99.90;;;;;;4995085;28;20230;-77
2024/01/03 05:47:10;;;;;;;3.60;1.30;;;10.60;99.90;;;;;;4995587;28;20192;-77
2024/01/03 05:49:39;;;;;;;3.07;1.40;;;10.70;99.90;;;;;;5013065;28;20203;-77
2024/01/03 05:52:06;;;;;;;3.20;0.90;;;10.70;99.90;;;;;;4995700;28;20199;-77
2024/01/03 05:54:36;;;;;;;5.93;1.20;;;10.60;99.90;;;;;;4995465;28;20203;-78
2024/01/03 05:57:05;;;;;;;3.03;1.27;;;10.60;99.90;;;;;;4995964;28;20568;-78
2024/01/03 05:59:32;;;;;;;2.47;0.73;;;10.60;99.90;;;;;;4995159;28;20237;-78
2024/01/03 06:02:00;;;;;;;3.57;1.37;;;10.60;99.90;;;;;;5013223;28;20226;-78
2024/01/03 06:04:27;;;;;;;3.63;1.03;;;10.50;99.90;;;;;;4995105;28;20196;-78
2024/01/03 06:06:56;;;;;;;2.90;1.20;;;10.50;99.90;;;;;;4995590;28;20196;-78
2024/01/03 06:09:23;;;;;;;3.13;0.70;;;10.50;99.90;;;;;;4994699;28;20211;-78
2024/01/03 06:11:51;;;;;;;2.17;0.90;;;10.50;99.90;;;;;;5033344;23;20233;-78
2024/01/03 06:14:18;;;;;;;3.97;0.97;;;10.50;99.90;;;;;;5014716;28;20206;-78
2024/01/03 06:16:45;;;;;;;3.03;1.03;;;10.50;99.90;;;;;;5017514;28;20201;-78
2024/01/03 06:19:13;;;;;;;3.97;1.20;;;10.50;99.90;;;;;;5034014;28;20194;-78
2024/01/03 06:21:40;;;;;;;2.77;1.03;;;10.50;99.90;;;;;;5048485;28;20710;-78
2024/01/03 06:24:09;;;;;;;4.33;1.50;;;10.50;99.90;;;;;;5037369;28;20202;-78
2024/01/03 06:26:37;;;;;;;4.37;0.97;;;10.40;99.90;;;;;;5033694;28;20228;-78
2024/01/03 06:29:04;;;;;;;5.37;1.53;;;10.40;99.90;;;;;;5034407;28;20233;-78
2024/01/03 06:31:31;;;;;;;3.47;0.90;;;10.40;99.90;;;;;;5033942;28;20218;-73
2024/01/03 06:33:59;;;;;;;4.20;1.13;;;10.50;99.90;;;;;;5033781;28;20586;-76
2024/01/03 06:36:26;;;;;;;2.80;1.20;;;10.60;99.90;;;;;;5032821;28;20191;-76
2024/01/03 06:38:54;;;;;;;3.77;0.93;;;10.70;99.90;;;;;;5043601;28;20193;-81
2024/01/03 06:41:23;;;;;;;2.53;1.23;;;10.60;99.90;;;;;;5045911;28;20213;-80
2024/01/03 06:43:51;;;;;;;5.87;1.30;;;10.50;99.90;;;;;;5069603;28;20209;-81
2024/01/03 06:46:38;;;;;;;2.83;1.10;;;10.50;99.90;;;;;;5047861;28;20203;-81
2024/01/03 06:49:13;;;;;;;4.73;1.20;;;10.40;99.90;;;;;;5055687;28;20187;-82
2024/01/03 06:51:43;;;;;;;3.87;1.67;;;10.30;99.90;;;;;;5029189;28;20233;-81
2024/01/03 06:54:10;;;;;;;5.40;1.57;;;10.30;99.90;;;;;;5043953;28;20206;-84
2024/01/03 06:56:39;;;;;;;5.27;1.20;;;10.30;99.90;;;;;;5046463;28;20202;-83
2024/01/03 06:59:06;;;;;;;5.53;1.70;;;10.20;99.90;;;;;;5044625;28;20266;-83
2024/01/03 07:01:34;;;;;;;3.17;0.90;;;10.30;99.90;;;;;;5033222;28;20218;-82
2024/01/03 07:04:03;;;;;;;2.93;1.10;;;10.30;99.90;;;;;;5063836;28;20194;-84
2024/01/03 07:06:30;;;;;;;4.33;1.50;;;10.20;99.90;;;;;;5054781;28;20217;-84
2024/01/03 07:08:58;;;;;;;5.10;1.80;;;10.20;99.90;;;;;;5056386;28;20209;-83
2024/01/03 07:11:25;;;;;;;6.53;2.13;;;10.20;99.90;;;;;;5080884;28;20218;-84
2024/01/03 07:13:54;;;;;;;4.33;1.40;;;10.10;99.90;;;;;;5061561;28;20201;-84
2024/01/03 07:16:21;;;;;;;5.73;1.33;;;10.20;99.90;;;;;;5048288;28;20198;-83
2024/01/03 07:18:49;;;;;;;4.77;1.30;;;10.10;99.90;;;;;;5075695;28;20193;-84
2024/01/03 07:21:16;;;;;;;6.40;1.53;;;10.10;99.90;;;;;;5056931;28;20214;-83
2024/01/03 07:23:44;;;;;;;2.07;0.97;;;10.10;99.90;;;;;;5065652;28;20198;-83
2024/01/03 07:26:11;;;;;;;5.10;1.63;;;10.10;99.90;;;;;;5044079;28;20195;-85
2024/01/03 07:28:39;;;;;;;4.67;1.67;;;10.10;99.90;;;;;;5046813;28;20203;-83
2024/01/03 07:31:07;;;;;;;5.33;1.93;;;10.10;99.90;;;;;;5048223;28;20706;-84
2024/01/03 07:33:35;;;;;;;4.40;1.60;;;10.10;99.90;;;;;;5054022;28;20204;-84
2024/01/03 07:36:04;;;;;;;6.07;1.90;;;10.10;99.90;;;;;;5051783;28;20194;-84
2024/01/03 07:38:31;;;;;;;4.80;1.67;;;10.10;99.90;;;;;;5061147;28;20206;-85
2024/01/03 07:40:59;;;;;;;5.10;1.50;;;10.20;99.90;;;;;;5053641;28;20210;-84
2024/01/03 07:43:27;;;;;;;5.70;1.77;;;10.10;99.90;;;;;;5040974;28;20228;-84
2024/01/03 07:45:55;;;;;;;7.63;2.23;;;10.20;99.90;;;;;;5042547;28;20198;-82
2024/01/03 07:48:24;;;;;;;6.60;2.23;;;10.20;99.90;;;;;;5047837;28;20201;-82
2024/01/03 07:50:51;;;;;;;6.43;2.30;;;10.20;99.90;;;;;;5049207;28;20576;-82
2024/01/03 07:53:19;;;;;;;6.20;2.67;;;10.20;99.90;;;;;;5047683;28;20198;-81
2024/01/03 07:55:46;;;;;;;5.93;2.20;;;10.30;99.90;;;;;;5044213;28;20206;-82
2024/01/03 07:58:14;;;;;;;8.53;2.57;;;10.40;99.90;;;;;;5046879;28;20194;-81
2024/01/03 08:00:42;;;;;;;12.33;2.83;;;10.30;99.90;;;;;;5039295;28;20222;-82
2024/01/03 08:03:12;;;;;;;14.10;3.00;;;10.30;99.90;;;;;;5054961;28;20198;-82
2024/01/03 08:05:40;;;;;;;7.03;2.07;;;10.30;99.90;;;;;;5037833;28;20205;-81
2024/01/03 08:08:08;;;;;;;9.37;2.20;;;10.40;99.90;;;;;;5041232;28;20209;-79
2024/01/03 08:10:35;;;;;;;10.30;2.80;;;10.40;99.90;;;;;;5041151;28;20226;-80
2024/01/03 08:13:05;;;;;;;10.00;2.73;;;10.40;99.90;;;;;;5037546;28;20191;-80
2024/01/03 08:15:33;;;;;;;9.00;2.43;;;10.40;99.90;;;;;;5040451;28;20198;-80
2024/01/03 08:18:00;;;;;;;7.63;2.10;;;10.30;99.90;;;;;;5033204;28;20225;-80
2024/01/03 08:20:28;;;;;;;5.80;1.37;;;10.40;99.90;;;;;;5031967;28;20221;-80
2024/01/03 08:22:57;;;;;;;4.90;1.27;;;10.40;99.90;;;;;;5050659;28;20222;-81
2024/01/03 08:25:24;;;;;;;2.73;0.90;;;10.30;99.90;;;;;;5039272;28;20206;-79
2024/01/03 08:27:52;;;;;;;4.10;1.10;;;10.20;99.90;;;;;;5037152;28;20214;-79
2024/01/03 08:30:19;;;;;;;2.20;0.80;;;10.10;99.90;;;;;;5038180;28;20218;-78
2024/01/03 08:32:47;;;;;;;2.37;0.70;;;10.10;99.90;;;;;;5039528;28;20198;-80
2024/01/03 08:35:14;;;;;;;1.80;0.70;;;10.00;99.90;;;;;;5056369;28;20206;-80
2024/01/03 08:37:41;;;;;;;3.17;0.63;;;10.00;99.90;;;;;;5046888;28;20206;-79
2024/01/03 08:40:19;;;;;;;1.77;0.70;;;9.90;99.90;;;;;;5029216;28;20199;-79
2024/01/03 08:42:46;;;;;;;0.70;0.40;;;9.90;99.90;;;;;;5041369;28;20228;-81
2024/01/03 08:45:14;;;;;;;1.50;0.50;;;9.80;99.90;;;;;;5036164;28;20210;-81
2024/01/03 08:47:42;;;;;;;1.30;0.47;;;9.80;99.90;;;;;;5056622;28;20202;-81
2024/01/03 08:50:10;;;;;;;1.23;0.47;;;9.80;99.90;;;;;;5040361;28;20187;-78
2024/01/03 08:52:41;;;;;;;1.07;0.60;;;9.70;99.90;;;;;;5041718;28;20206;-79
2024/01/03 08:55:08;;;;;;;2.00;0.93;;;9.70;99.90;;;;;;5033496;28;20191;-80
2024/01/03 08:57:37;;;;;;;1.63;0.63;;;9.80;99.90;;;;;;5058360;28;20198;-79
2024/01/03 09:00:06;;;;;;;3.07;1.00;;;9.70;99.90;;;;;;5054892;28;20193;-80
2024/01/03 09:02:33;;;;;;;2.80;1.43;;;9.70;99.90;;;;;;5038879;28;20702;-81
2024/01/03 09:05:01;;;;;;;2.43;0.60;;;9.60;99.90;;;;;;5037390;28;20214;-79
2024/01/03 09:07:28;;;;;;;3.97;0.90;;;9.60;99.90;;;;;;5031745;28;20205;-80
2024/01/03 09:09:56;;;;;;;2.20;0.93;;;9.60;99.90;;;;;;5050192;28;20199;-80
2024/01/03 09:12:25;;;;;;;3.20;0.93;;;9.60;99.90;;;;;;5038063;28;20237;-79
2024/01/03 09:14:54;;;;;;;5.57;1.10;;;9.60;99.90;;;;;;5029008;28;20214;-80
2024/01/03 09:17:21;;;;;;;5.43;1.40;;;9.70;99.90;;;;;;5036627;28;20209;-80
2024/01/03 09:19:49;;;;;;;2.20;1.30;;;9.70;99.90;;;;;;5052799;28;20195;-80
2024/01/03 09:22:17;;;;;;;4.90;1.60;;;9.80;99.90;;;;;;5033244;28;20237;-79
2024/01/03 09:24:44;;;;;;;4.80;1.30;;;9.80;99.90;;;;;;5049293;28;20575;-79
2024/01/03 09:27:12;;;;;;;3.80;1.30;;;9.80;99.90;;;;;;5047531;28;20214;-80
2024/01/03 09:29:41;;;;;;;7.70;2.23;;;9.80;99.90;;;;;;5055895;28;20205;-79
2024/01/03 09:32:10;;;;;;;9.50;2.20;;;9.80;99.90;;;;;;5039740;28;20218;-79
2024/01/03 09:34:47;;;;;;;7.67;2.00;;;9.90;99.90;;;;;;5036732;28;20207;-80
2024/01/03 09:37:17;;;;;;;5.67;1.70;;;9.80;99.90;;;;;;5039687;28;20198;-80
2024/01/03 09:39:54;;;;;;;6.37;2.50;;;9.90;99.90;;;;;;5034852;28;20198;-79
2024/01/03 09:42:22;;;;;;;6.70;2.63;;;10.00;99.90;;;;;;5038621;28;20222;-79
2024/01/03 09:44:52;;;;;;;8.00;2.13;;;10.00;99.90;;;;;;5037603;28;20217;-79
2024/01/03 09:47:26;;;;;;;5.70;2.20;;;10.00;99.90;;;;;;5038384;28;20194;-78
2024/01/03 09:49:53;;;;;;;5.67;2.13;;;10.10;99.90;;;;;;5036250;28;20209;-79
2024/01/03 09:52:21;;;;;;;12.03;2.23;;;10.00;99.90;;;;;;5053164;28;20217;-79
2024/01/03 09:54:48;;;;;;;7.03;1.67;;;10.00;99.90;;;;;;5051581;28;20203;-78
2024/01/03 09:57:18;;;;;;;7.27;2.20;;;10.00;99.90;;;;;;5031450;28;20195;-80
2024/01/03 09:59:45;;;;;;;6.50;1.93;;;10.10;99.90;;;;;;5052074;28;20194;-80
2024/01/03 10:02:14;;;;;;;9.37;1.90;;;10.10;99.90;;;;;;5031534;28;20222;-80
2024/01/03 10:04:47;;;;;;;18.07;2.47;;;10.10;99.90;;;;;;5035972;28;20207;-79
2024/01/03 10:07:14;;;;;;;6.77;1.53;;;10.00;99.90;;;;;;5051518;28;20205;-80
2024/01/03 10:09:44;;;;;;;9.10;2.23;;;10.00;99.90;;;;;;5050175;28;20204;-80
2024/01/03 10:12:18;;;;;;;8.30;2.57;;;10.00;99.90;;;;;;5038809;28;20218;-79
2024/01/03 10:14:45;;;;;;;11.90;2.50;;;10.00;99.90;;;;;;5034988;28;20206;-79
2024/01/03 10:17:13;;;;;;;8.43;2.33;;;10.00;99.90;;;;;;5036654;28;20194;-80
2024/01/03 10:19:40;;;;;;;6.10;2.57;;;10.00;99.90;;;;;;5052026;28;20579;-79
2024/01/03 10:22:10;;;;;;;10.70;2.67;;;10.00;99.90;;;;;;5032672;28;20272;-81
2024/01/03 10:24:42;;;;;;;9.10;2.27;;;10.10;99.90;;;;;;5054911;28;20209;-80
2024/01/03 10:27:11;;;;;;;7.17;2.17;;;10.20;99.90;;;;;;5033507;28;20198;-78
2024/01/03 10:29:39;;;;;;;8.97;2.60;;;10.20;99.90;;;;;;5037881;28;20202;-79
2024/01/03 10:32:09;;;;;;;8.17;2.23;;;10.30;99.90;;;;;;5035172;28;20225;-79
2024/01/03 10:34:37;;;;;;;7.80;2.00;;;10.30;99.90;;;;;;5053991;28;20524;-79
2024/01/03 10:37:05;;;;;;;4.67;1.43;;;10.40;99.90;;;;;;5037223;28;20203;-79
2024/01/03 10:39:35;;;;;;;7.73;1.77;;;10.50;99.90;;;;;;5058631;28;20201;-79
2024/01/03 10:42:07;;;;;;;6.73;2.00;;;10.50;99.90;;;;;;5042432;28;20229;-80
2024/01/03 10:44:35;;;;;;;7.97;2.10;;;10.60;99.90;;;;;;5049230;28;20190;-79
2024/01/03 10:47:03;;;;;;;6.10;1.37;;;10.70;99.90;;;;;;5040798;28;20205;-78
2024/01/03 10:49:30;;;;;;;6.67;2.00;;;10.70;99.90;;;;;;5055447;28;20194;-78
2024/01/03 10:52:03;;;;;;;9.27;1.97;;;10.70;99.90;;;;;;5038320;28;20263;-81
2024/01/03 10:54:42;;;;;;;5.60;1.70;;;10.70;99.90;;;;;;5051701;28;20195;-80
2024/01/03 10:57:12;;;;;;;5.70;2.00;;;10.70;99.90;;;;;;5040619;28;20190;-78
2024/01/03 10:59:46;;;;;;;6.57;1.90;;;10.80;99.90;;;;;;5060440;28;20203;-80
2024/01/03 11:02:22;;;;;;;9.70;2.13;;;10.80;99.90;;;;;;5039279;28;20232;-80
2024/01/03 11:04:58;;;;;;;9.33;2.23;;;10.80;99.90;;;;;;5035803;28;20564;-81
2024/01/03 11:07:34;;;;;;;6.53;1.97;;;10.80;99.90;;;;;;5034843;28;20203;-80
2024/01/03 11:10:03;;;;;;;9.47;2.23;;;10.80;99.90;;;;;;5029887;28;20190;-76
2024/01/03 11:12:31;;;;;;;7.37;2.03;;;11.00;99.90;;;;;;5025413;28;20203;-76
2024/01/03 11:15:22;;;;;;;11.33;2.70;;;11.00;99.90;;;;;;5049673;28;20191;-76
2024/01/03 11:17:50;;;;;;;7.67;2.70;;;11.10;99.90;;;;;;5041441;28;21402;-75
2024/01/03 11:20:28;;;;;;;10.47;2.33;;;11.10;99.90;;;;;;5046635;28;20195;-75
2024/01/03 11:22:56;;;;;;;8.23;2.60;;;11.30;99.90;;;;;;5046790;28;20236;-82
2024/01/03 11:25:49;;;;;;;5.50;1.80;;;11.00;99.90;;;;;;5059886;28;20606;-78
2024/01/03 11:28:33;;;;;;;6.77;2.57;;;10.90;99.90;;;;;;5038976;28;20198;-79
2024/01/03 11:31:01;;;;;;;6.60;2.10;;;10.90;99.90;;;;;;5040674;28;20225;-81
2024/01/03 11:33:31;;;;;;;7.60;3.00;;;10.90;99.90;;;;;;5042365;28;20202;-80
2024/01/03 11:35:58;;;;;;;5.73;1.77;;;11.00;99.90;;;;;;5034483;28;20679;-80
2024/01/03 11:38:42;;;;;;;7.70;2.30;;;11.00;99.90;;;;;;5057704;28;20205;-80
2024/01/03 11:41:16;;;;;;;8.90;2.20;;;11.00;99.90;;;;;;5053954;28;20214;-76
2024/01/03 11:43:44;;;;;;;9.67;2.23;;;10.90;99.90;;;;;;5058514;28;20197;-80
2024/01/03 11:46:15;;;;;;;8.90;2.70;;;10.90;99.90;;;;;;5041687;28;20206;-81
2024/01/03 11:48:45;;;;;;;10.37;2.23;;;10.90;99.90;;;;;;5044276;28;20662;-81
2024/01/03 11:51:24;;;;;;;9.27;2.27;;;11.00;99.90;;;;;;5063526;28;20247;-80
2024/01/03 11:53:52;;;;;;;6.20;2.00;;;11.40;99.90;;;;;;5048586;28;20190;-80
2024/01/03 11:56:32;;;;;;;9.13;2.03;;;11.70;99.90;;;;;;5061090;28;20208;-79
2024/01/03 11:59:02;;;;;;;7.23;1.90;;;11.70;99.90;;;;;;5063442;28;20217;-80
2024/01/03 12:01:30;;;;;;;7.03;2.37;;;11.70;99.90;;;;;;5046207;28;20230;-81
2024/01/03 12:04:10;;;;;;;4.27;1.43;;;11.50;99.90;;;;;;5038330;28;20302;-79
2024/01/03 12:06:39;;;;;;;8.23;1.80;;;11.30;99.90;;;;;;5042429;28;20659;-80
2024/01/03 12:09:06;;;;;;;9.10;2.43;;;11.20;99.90;;;;;;5062600;28;20198;-79
2024/01/03 12:11:36;;;;;;;10.83;2.70;;;11.20;99.90;;;;;;5062720;28;20234;-80
2024/01/03 12:14:03;;;;;;;7.83;1.97;;;11.10;99.90;;;;;;5052744;28;20182;-79
2024/01/03 12:16:31;;;;;;;5.63;2.40;;;11.10;99.90;;;;;;5061100;28;20193;-79
2024/01/03 12:18:58;;;;;;;6.93;2.10;;;11.10;99.90;;;;;;5060477;28;20198;-79
2024/01/03 12:21:26;;;;;;;7.10;2.27;;;11.10;99.90;;;;;;5064982;28;20221;-80
2024/01/03 12:23:55;;;;;;;8.00;2.90;;;11.10;99.90;;;;;;5056550;28;20222;-81
2024/01/03 12:26:22;;;;;;;12.03;2.13;;;11.10;99.90;;;;;;5040407;28;20565;-80
2024/01/03 12:28:54;;;;;;;4.83;1.90;;;11.20;99.90;;;;;;5045583;28;20194;-80
2024/01/03 12:31:22;;;;;;;7.43;2.10;;;11.20;99.90;;;;;;5043039;28;20229;-80
2024/01/03 12:33:49;;;;;;;11.20;2.53;;;11.20;99.90;;;;;;5039859;28;20210;-80
2024/01/03 12:36:18;;;;;;;10.33;2.00;;;11.20;99.90;;;;;;5042791;28;20206;-80
2024/01/03 12:38:46;;;;;;;7.80;2.07;;;11.20;99.90;;;;;;5035687;28;20209;-80
2024/01/03 12:41:13;;;;;;;4.50;1.73;;;11.20;99.90;;;;;;5039694;28;20221;-80
2024/01/03 12:43:41;;;;;;;3.60;1.20;;;11.20;99.90;;;;;;5039154;28;20225;-78
2024/01/03 12:46:10;;;;;;;3.40;1.57;;;11.20;99.90;;;;;;5017290;28;20195;-79
2024/01/03 12:48:37;;;;;;;8.27;1.90;;;11.20;99.90;;;;;;5022994;28;20198;-78
2024/01/03 12:51:05;;;;;;;5.50;1.77;;;11.20;99.90;;;;;;5036984;28;20226;-78
2024/01/03 12:53:32;;;;;;;5.90;1.53;;;11.20;99.90;;;;;;5035501;28;20222;-79
2024/01/03 12:56:00;;;;;;;5.53;1.73;;;11.20;99.90;;;;;;5035241;28;20198;-79
2024/01/03 12:58:27;;;;;;;6.40;1.80;;;11.20;99.90;;;;;;5026663;28;20205;-79